Time;durP1;ratioP1;P1;durP2;ratioP2;P2;SDS_P1;SDS_P2;PMS_P1;PMS_P2;Temp;Humidity;BMP_temperature;BMP_pressure;BME280_temperature;BME280_humidity;BME280_pressure;Samples;Min_cycle;Max_cycle;Signal;HPM_P1;HPM_P2
2023/12/14 00:01:23;;;;;;;11.90;10.70;;;5.00;99.90;;;;;;5019062;28;20483;-79
2023/12/14 00:03:52;;;;;;;15.00;12.10;;;5.00;99.90;;;;;;5019147;28;20475;-79
2023/12/14 00:06:20;;;;;;;11.23;10.10;;;5.00;99.90;;;;;;5020453;28;20440;-79
2023/12/14 00:08:48;;;;;;;12.77;10.70;;;5.00;99.90;;;;;;5020437;28;20510;-79
2023/12/14 00:11:17;;;;;;;12.00;10.60;;;5.00;99.90;;;;;;5019115;28;20455;-79
2023/12/14 00:13:45;;;;;;;11.60;10.43;;;4.90;99.90;;;;;;5018399;28;20472;-79
2023/12/14 00:16:15;;;;;;;14.80;11.27;;;4.90;99.90;;;;;;5018191;28;20459;-79
2023/12/14 00:18:43;;;;;;;13.67;11.97;;;4.90;99.90;;;;;;5018319;28;20456;-79
2023/12/14 00:21:11;;;;;;;13.40;12.10;;;4.90;99.90;;;;;;5018565;28;20439;-79
2023/12/14 00:23:40;;;;;;;12.57;11.30;;;4.90;99.90;;;;;;5018050;28;20479;-79
2023/12/14 00:26:08;;;;;;;11.57;10.37;;;4.90;99.90;;;;;;5019168;28;20440;-79
2023/12/14 00:28:36;;;;;;;11.77;10.57;;;4.90;99.90;;;;;;5019054;28;20474;-80
2023/12/14 00:31:05;;;;;;;12.13;10.93;;;4.90;99.90;;;;;;5018240;28;20870;-79
2023/12/14 00:33:35;;;;;;;11.57;10.57;;;4.90;99.90;;;;;;5019397;28;20466;-79
2023/12/14 00:36:03;;;;;;;13.57;12.03;;;4.90;99.90;;;;;;5019205;28;20464;-79
2023/12/14 00:38:32;;;;;;;13.33;12.10;;;4.90;99.90;;;;;;5018261;28;20428;-79
2023/12/14 00:41:00;;;;;;;12.47;11.37;;;4.80;99.90;;;;;;5019627;28;20451;-79
2023/12/14 00:43:29;;;;;;;11.93;10.73;;;4.90;99.90;;;;;;5017510;28;20467;-79
2023/12/14 00:45:57;;;;;;;12.40;11.30;;;4.90;99.90;;;;;;5017863;28;20460;-79
2023/12/14 00:48:25;;;;;;;12.70;11.50;;;4.90;99.90;;;;;;5017568;28;20468;-79
2023/12/14 00:50:55;;;;;;;12.63;11.50;;;4.90;99.90;;;;;;5017607;28;20534;-79
2023/12/14 00:53:23;;;;;;;13.82;12.63;;;4.90;99.90;;;;;;5017031;28;20511;-79
2023/12/14 00:55:51;;;;;;;12.70;11.60;;;5.00;99.90;;;;;;5017552;28;20197;-79
2023/12/14 00:58:20;;;;;;;13.23;12.03;;;5.00;99.90;;;;;;5017177;28;20452;-79
2023/12/14 01:00:48;;;;;;;12.47;11.17;;;4.90;99.90;;;;;;5016742;28;20464;-79
2023/12/14 01:03:16;;;;;;;11.77;10.57;;;4.90;99.90;;;;;;5016644;28;20870;-79
2023/12/14 01:05:45;;;;;;;10.83;9.83;;;4.90;99.90;;;;;;5016914;28;20498;-79
2023/12/14 01:08:15;;;;;;;10.10;9.20;;;4.90;99.90;;;;;;5017213;28;20472;-79
2023/12/14 01:10:44;;;;;;;11.27;9.97;;;4.90;99.90;;;;;;5019007;28;20487;-79
2023/12/14 01:13:12;;;;;;;10.87;9.87;;;4.90;99.90;;;;;;5017102;28;20456;-79
2023/12/14 01:15:40;;;;;;;10.60;9.60;;;4.80;99.90;;;;;;5017250;28;20523;-79
2023/12/14 01:18:08;;;;;;;10.07;9.10;;;4.80;99.90;;;;;;5016976;28;20499;-79
2023/12/14 01:20:38;;;;;;;9.83;8.87;;;4.80;99.90;;;;;;5016770;28;20528;-79
2023/12/14 01:23:09;;;;;;;9.47;8.60;;;4.80;99.90;;;;;;5016308;28;20456;-79
2023/12/14 01:25:39;;;;;;;8.97;8.10;;;4.80;99.90;;;;;;5016498;28;20447;-78
2023/12/14 01:28:08;;;;;;;9.17;8.37;;;4.80;99.90;;;;;;5016262;28;20472;-79
2023/12/14 01:30:36;;;;;;;9.77;8.77;;;4.80;99.90;;;;;;5016191;28;20509;-79
2023/12/14 01:33:05;;;;;;;8.63;7.83;;;4.80;99.90;;;;;;5015823;28;20456;-79
2023/12/14 01:35:33;;;;;;;9.00;8.07;;;4.80;99.90;;;;;;5016898;28;20490;-79
2023/12/14 01:38:01;;;;;;;8.67;7.77;;;4.80;99.90;;;;;;5016655;28;20448;-79
2023/12/14 01:40:30;;;;;;;8.40;7.60;;;4.80;99.90;;;;;;5016537;28;20494;-79
2023/12/14 01:43:10;;;;;;;8.60;7.70;;;4.80;99.90;;;;;;5016214;28;20455;-79
2023/12/14 01:45:38;;;;;;;9.03;7.83;;;4.80;99.90;;;;;;5016124;28;20538;-79
2023/12/14 01:48:06;;;;;;;8.73;7.77;;;4.90;99.90;;;;;;5016061;28;20530;-79
2023/12/14 01:50:35;;;;;;;8.07;7.27;;;4.80;99.90;;;;;;5018103;28;20432;-79
2023/12/14 01:53:03;;;;;;;8.07;7.27;;;4.80;99.90;;;;;;5016784;28;20487;-78
2023/12/14 01:55:32;;;;;;;8.90;7.63;;;4.80;99.90;;;;;;5016085;28;20542;-79
2023/12/14 01:58:00;;;;;;;7.83;6.93;;;4.80;99.90;;;;;;5015965;28;20506;-79
2023/12/14 02:00:40;;;;;;;9.00;7.20;;;4.80;99.90;;;;;;5017979;28;20443;-79
2023/12/14 02:03:08;;;;;;;8.30;7.37;;;4.80;99.90;;;;;;5016472;28;20448;-78
2023/12/14 02:05:38;;;;;;;8.40;7.30;;;4.80;99.90;;;;;;5016849;28;20436;-79
2023/12/14 02:08:07;;;;;;;9.00;7.60;;;4.80;99.90;;;;;;5016059;28;20533;-79
2023/12/14 02:10:35;;;;;;;10.03;8.47;;;4.80;99.90;;;;;;5015512;28;20446;-79
2023/12/14 02:13:04;;;;;;;9.00;7.50;;;4.80;99.90;;;;;;5014689;28;20459;-78
2023/12/14 02:15:34;;;;;;;9.33;8.43;;;4.80;99.90;;;;;;5015342;28;21023;-79
2023/12/14 02:18:02;;;;;;;8.73;7.67;;;4.80;99.90;;;;;;5016956;28;20439;-79
2023/12/14 02:20:30;;;;;;;10.10;7.80;;;4.70;99.90;;;;;;5015191;28;20550;-78
2023/12/14 02:23:01;;;;;;;10.07;7.00;;;4.70;99.90;;;;;;5016652;28;20444;-79
2023/12/14 02:25:30;;;;;;;10.33;7.70;;;4.70;99.90;;;;;;5015148;28;20482;-79
2023/12/14 02:27:58;;;;;;;7.83;6.30;;;4.70;99.90;;;;;;5016344;28;20450;-79
2023/12/14 02:30:27;;;;;;;6.73;6.03;;;4.70;99.90;;;;;;5015095;28;20883;-79
2023/12/14 02:32:55;;;;;;;8.23;6.10;;;4.60;99.90;;;;;;5014834;28;20514;-79
2023/12/14 02:35:23;;;;;;;6.73;6.03;;;4.60;99.90;;;;;;5014743;28;20471;-79
2023/12/14 02:37:51;;;;;;;9.20;6.07;;;4.60;99.90;;;;;;5014977;28;20522;-79
2023/12/14 02:40:21;;;;;;;8.13;6.17;;;4.60;99.90;;;;;;5015266;28;20491;-79
2023/12/14 02:42:50;;;;;;;8.63;6.17;;;4.60;99.90;;;;;;5014926;28;20837;-79
2023/12/14 02:45:18;;;;;;;8.03;6.63;;;4.60;99.90;;;;;;5016166;28;20464;-79
2023/12/14 02:47:49;;;;;;;6.93;6.23;;;4.60;99.90;;;;;;5016773;28;20435;-79
2023/12/14 02:50:18;;;;;;;7.10;5.63;;;4.60;99.90;;;;;;5014452;28;20476;-79
2023/12/14 02:52:46;;;;;;;7.23;5.90;;;4.60;99.90;;;;;;5014481;28;20448;-79
2023/12/14 02:55:14;;;;;;;8.20;6.23;;;4.60;99.90;;;;;;5014260;28;21058;-79
2023/12/14 02:57:44;;;;;;;9.40;7.10;;;4.60;99.90;;;;;;5014824;28;20964;-79
2023/12/14 03:00:14;;;;;;;10.17;6.87;;;4.60;99.90;;;;;;5016467;28;20930;-79
2023/12/14 03:02:42;;;;;;;8.23;6.70;;;4.60;99.90;;;;;;5018704;28;20440;-79
2023/12/14 03:05:10;;;;;;;13.13;7.33;;;4.60;99.90;;;;;;5016697;28;20526;-79
2023/12/14 03:07:39;;;;;;;8.47;6.37;;;4.60;99.90;;;;;;5017383;28;20949;-79
2023/12/14 03:10:08;;;;;;;9.63;6.73;;;4.60;99.90;;;;;;5015642;28;20467;-79
2023/12/14 03:12:37;;;;;;;9.77;6.50;;;4.60;99.90;;;;;;5015809;28;20452;-79
2023/12/14 03:15:08;;;;;;;8.90;6.53;;;4.60;99.90;;;;;;5015683;28;20472;-79
2023/12/14 03:17:36;;;;;;;9.20;7.17;;;4.60;99.90;;;;;;5016971;28;20428;-79
2023/12/14 03:20:06;;;;;;;9.90;7.57;;;4.60;99.90;;;;;;5015798;28;20878;-79
2023/12/14 03:22:34;;;;;;;7.87;6.10;;;4.60;99.90;;;;;;5017051;28;20435;-79
2023/12/14 03:25:03;;;;;;;9.77;6.20;;;4.60;99.90;;;;;;5017552;28;20467;-79
2023/12/14 03:27:31;;;;;;;8.50;6.23;;;4.70;99.90;;;;;;5018726;28;20851;-79
2023/12/14 03:30:00;;;;;;;6.70;4.90;;;4.70;99.90;;;;;;5018320;28;20471;-79
2023/12/14 03:32:29;;;;;;;8.43;6.07;;;4.60;99.90;;;;;;5018496;28;20473;-79
2023/12/14 03:34:58;;;;;;;9.07;5.53;;;4.70;99.90;;;;;;5018551;28;20482;-79
2023/12/14 03:37:26;;;;;;;7.33;5.40;;;4.70;99.90;;;;;;5018451;28;21003;-79
2023/12/14 03:39:54;;;;;;;7.20;5.10;;;4.70;99.90;;;;;;5018511;28;20969;-79
2023/12/14 03:42:23;;;;;;;7.10;5.13;;;4.70;99.90;;;;;;5018461;28;20470;-79
2023/12/14 03:44:51;;;;;;;6.73;4.63;;;4.70;99.90;;;;;;5018234;28;20554;-78
2023/12/14 03:47:19;;;;;;;8.80;5.20;;;4.70;99.90;;;;;;5018213;28;20490;-79
2023/12/14 03:49:50;;;;;;;7.37;5.20;;;4.70;99.90;;;;;;5017999;28;20882;-79
2023/12/14 03:52:18;;;;;;;6.50;4.87;;;4.70;99.90;;;;;;5017606;28;20451;-79
2023/12/14 03:54:46;;;;;;;7.40;5.40;;;4.70;99.90;;;;;;5018013;28;20988;-79
2023/12/14 03:57:15;;;;;;;7.23;5.00;;;4.80;99.90;;;;;;5018262;28;20508;-79
2023/12/14 03:59:43;;;;;;;6.40;5.33;;;4.80;99.90;;;;;;5017719;28;20960;-79
2023/12/14 04:02:12;;;;;;;8.13;5.30;;;4.80;99.90;;;;;;5017641;28;20455;-79
2023/12/14 04:04:41;;;;;;;6.13;4.57;;;4.80;99.90;;;;;;5017650;28;20476;-79
2023/12/14 04:07:10;;;;;;;6.10;4.80;;;4.80;99.90;;;;;;5017340;28;20964;-79
2023/12/14 04:09:39;;;;;;;6.70;4.97;;;4.80;99.90;;;;;;5017573;28;21015;-78
2023/12/14 04:12:07;;;;;;;6.20;4.30;;;4.80;99.90;;;;;;5018579;28;20442;-79
2023/12/14 04:14:36;;;;;;;6.37;5.13;;;4.80;99.90;;;;;;5018778;28;20456;-79
2023/12/14 04:17:04;;;;;;;6.50;5.30;;;4.80;99.90;;;;;;5017287;28;20791;-79
2023/12/14 04:19:33;;;;;;;6.93;5.03;;;4.80;99.90;;;;;;5017079;28;20792;-78
2023/12/14 04:22:01;;;;;;;6.13;5.00;;;4.80;99.90;;;;;;5017142;28;20451;-79
2023/12/14 04:24:31;;;;;;;5.57;4.70;;;4.80;99.90;;;;;;5016606;28;20997;-79
2023/12/14 04:27:00;;;;;;;6.87;4.77;;;4.80;99.90;;;;;;5018108;28;20442;-79
2023/12/14 04:29:28;;;;;;;7.47;5.10;;;4.80;99.90;;;;;;5016906;28;20499;-79
2023/12/14 04:31:56;;;;;;;5.10;4.43;;;4.80;99.90;;;;;;5016783;28;20491;-79
2023/12/14 04:34:25;;;;;;;8.07;5.10;;;4.80;99.90;;;;;;5017220;28;20575;-79
2023/12/14 04:36:57;;;;;;;6.27;5.10;;;4.80;99.90;;;;;;5018606;28;20501;-79
2023/12/14 04:39:26;;;;;;;10.30;6.03;;;4.80;99.90;;;;;;5018395;28;20531;-78
2023/12/14 04:41:55;;;;;;;9.20;5.90;;;4.90;99.90;;;;;;5017848;28;20452;-79
2023/12/14 04:44:24;;;;;;;6.87;6.10;;;4.80;99.90;;;;;;5017510;28;20476;-78
2023/12/14 04:46:52;;;;;;;6.90;6.20;;;4.90;99.90;;;;;;5017407;28;20503;-78
2023/12/14 04:49:20;;;;;;;6.33;5.70;;;4.90;99.90;;;;;;5017021;28;20551;-78
2023/12/14 04:51:48;;;;;;;8.13;5.80;;;4.90;99.90;;;;;;5017163;28;20946;-79
2023/12/14 04:54:18;;;;;;;6.50;5.50;;;4.90;99.90;;;;;;5018232;28;20567;-79
2023/12/14 04:56:47;;;;;;;7.70;5.50;;;4.90;99.90;;;;;;5016922;28;20819;-79
2023/12/14 04:59:16;;;;;;;5.83;4.83;;;4.90;99.90;;;;;;5016682;28;20547;-79
2023/12/14 05:01:45;;;;;;;5.70;4.70;;;4.90;99.90;;;;;;5016937;28;20482;-79
2023/12/14 05:04:13;;;;;;;6.20;5.60;;;4.80;99.90;;;;;;5016825;28;20468;-78
2023/12/14 05:06:42;;;;;;;7.63;6.07;;;4.90;99.90;;;;;;5016667;28;20977;-79
2023/12/14 05:09:11;;;;;;;7.27;6.10;;;4.90;99.90;;;;;;5017321;28;20475;-78
2023/12/14 05:11:40;;;;;;;5.93;5.33;;;4.90;99.90;;;;;;5018585;28;20475;-79
2023/12/14 05:14:09;;;;;;;6.60;6.00;;;4.80;99.90;;;;;;5016487;28;20837;-79
2023/12/14 05:16:39;;;;;;;7.20;5.50;;;4.90;99.90;;;;;;5016417;28;20456;-79
2023/12/14 05:19:07;;;;;;;7.23;6.53;;;4.90;99.90;;;;;;5017654;28;20432;-79
2023/12/14 05:21:35;;;;;;;5.20;4.70;;;4.90;99.90;;;;;;5018682;28;20452;-79
2023/12/14 05:24:04;;;;;;;6.50;5.90;;;4.90;99.90;;;;;;5017332;28;20491;-79
2023/12/14 05:26:32;;;;;;;7.27;6.23;;;4.90;99.90;;;;;;5017736;28;20856;-79
2023/12/14 05:29:00;;;;;;;6.87;6.17;;;4.90;99.90;;;;;;5017912;28;20546;-79
2023/12/14 05:31:29;;;;;;;8.37;5.50;;;4.90;99.90;;;;;;5016372;28;20471;-79
2023/12/14 05:33:59;;;;;;;5.80;5.20;;;4.90;99.90;;;;;;5016418;28;20559;-79
2023/12/14 05:36:27;;;;;;;6.27;5.37;;;4.90;99.90;;;;;;5017314;28;20466;-79
2023/12/14 05:38:56;;;;;;;6.23;5.13;;;4.90;99.90;;;;;;5016455;28;20451;-79
2023/12/14 05:41:24;;;;;;;7.00;5.53;;;4.90;99.90;;;;;;5015807;28;20457;-79
2023/12/14 05:43:52;;;;;;;7.30;5.57;;;4.90;99.90;;;;;;5016919;28;20492;-79
2023/12/14 05:46:24;;;;;;;6.20;5.47;;;4.90;99.90;;;;;;5016243;28;20526;-79
2023/12/14 05:48:52;;;;;;;6.23;5.40;;;5.00;99.90;;;;;;5015075;28;20447;-78
2023/12/14 05:51:30;;;;;;;6.93;5.67;;;4.90;99.90;;;;;;5014911;28;20570;-79
2023/12/14 05:53:58;;;;;;;6.80;5.70;;;5.00;99.90;;;;;;5015352;28;20471;-79
2023/12/14 05:56:27;;;;;;;6.93;6.10;;;5.00;99.90;;;;;;5014758;28;20514;-79
2023/12/14 05:58:55;;;;;;;8.40;6.20;;;5.00;99.90;;;;;;5015195;28;20483;-79
2023/12/14 06:01:25;;;;;;;7.57;6.53;;;5.00;99.90;;;;;;5015014;28;20930;-79
2023/12/14 06:03:53;;;;;;;7.40;5.70;;;5.00;99.90;;;;;;5016308;28;20827;-79
2023/12/14 06:06:22;;;;;;;8.87;6.40;;;5.00;99.90;;;;;;5015036;28;20451;-79
2023/12/14 06:08:51;;;;;;;7.97;6.37;;;4.90;99.90;;;;;;5015110;28;20498;-79
2023/12/14 06:11:20;;;;;;;7.83;6.93;;;4.90;99.90;;;;;;5015234;28;21071;-79
2023/12/14 06:13:49;;;;;;;8.50;7.13;;;4.90;99.90;;;;;;5014671;28;20471;-79
2023/12/14 06:16:17;;;;;;;9.67;7.10;;;4.90;99.90;;;;;;5014362;28;20818;-79
2023/12/14 06:18:45;;;;;;;10.27;7.67;;;5.00;99.90;;;;;;5014636;28;20452;-79
2023/12/14 06:21:14;;;;;;;8.77;6.77;;;5.00;99.90;;;;;;5013958;28;20452;-79
2023/12/14 06:23:42;;;;;;;11.63;8.13;;;5.00;99.90;;;;;;5013973;28;20498;-79
2023/12/14 06:26:11;;;;;;;10.53;7.20;;;5.00;99.90;;;;;;5014295;28;20984;-79
2023/12/14 06:28:40;;;;;;;8.90;7.30;;;5.00;99.90;;;;;;5016474;28;20483;-80
2023/12/14 06:31:14;;;;;;;10.40;7.97;;;5.00;99.90;;;;;;5016947;28;20472;-80
2023/12/14 06:33:42;;;;;;;10.70;8.40;;;5.00;99.90;;;;;;5017738;28;20503;-80
2023/12/14 06:36:11;;;;;;;15.53;9.43;;;5.00;99.90;;;;;;5017257;28;20463;-80
2023/12/14 06:38:40;;;;;;;10.57;8.60;;;5.00;99.90;;;;;;5016836;28;20505;-80
2023/12/14 06:41:08;;;;;;;11.87;8.40;;;5.00;99.90;;;;;;5017763;28;20447;-80
2023/12/14 06:43:40;;;;;;;10.97;7.40;;;4.90;99.90;;;;;;5015780;28;20467;-80
2023/12/14 06:46:09;;;;;;;13.53;7.00;;;4.90;99.90;;;;;;5015774;28;20455;-80
2023/12/14 06:48:37;;;;;;;9.57;7.87;;;4.90;99.90;;;;;;5017619;28;20432;-80
2023/12/14 06:51:05;;;;;;;9.20;7.47;;;5.00;99.90;;;;;;5015311;28;20480;-80
2023/12/14 06:53:34;;;;;;;7.90;6.27;;;4.90;99.90;;;;;;5015336;28;20496;-80
2023/12/14 06:56:03;;;;;;;9.97;7.20;;;5.00;99.90;;;;;;5015656;28;20889;-80
2023/12/14 06:58:31;;;;;;;12.07;7.67;;;5.00;99.90;;;;;;5015290;28;20536;-80
2023/12/14 07:01:01;;;;;;;10.37;8.20;;;5.00;99.90;;;;;;5015410;28;20451;-80
2023/12/14 07:03:29;;;;;;;12.10;7.60;;;4.90;99.90;;;;;;5015574;28;20464;-80
2023/12/14 07:05:58;;;;;;;11.23;7.77;;;4.90;99.90;;;;;;5016379;28;20472;-80
2023/12/14 07:08:27;;;;;;;7.27;6.47;;;4.90;99.90;;;;;;5015123;28;20542;-80
2023/12/14 07:10:55;;;;;;;11.40;7.73;;;4.90;99.90;;;;;;5015944;28;20471;-80
2023/12/14 07:13:23;;;;;;;10.13;7.40;;;4.90;99.90;;;;;;5015859;28;20453;-80
2023/12/14 07:15:52;;;;;;;7.93;6.90;;;4.90;99.90;;;;;;5015794;28;20862;-80
2023/12/14 07:18:22;;;;;;;10.90;7.50;;;4.90;99.90;;;;;;5015687;28;20510;-80
2023/12/14 07:20:50;;;;;;;10.30;7.70;;;4.90;99.90;;;;;;5015786;28;20455;-80
2023/12/14 07:23:19;;;;;;;10.07;7.47;;;4.90;99.90;;;;;;5015602;28;20475;-80
2023/12/14 07:25:47;;;;;;;10.50;7.20;;;4.90;99.90;;;;;;5016085;28;20439;-80
2023/12/14 07:28:15;;;;;;;11.37;6.50;;;4.90;99.90;;;;;;5016877;28;20436;-80
2023/12/14 07:30:43;;;;;;;9.97;6.93;;;4.90;99.90;;;;;;5015010;28;20462;-80
2023/12/14 07:33:12;;;;;;;7.50;6.20;;;4.90;99.90;;;;;;5015608;28;20447;-80
2023/12/14 07:35:42;;;;;;;6.50;5.63;;;4.90;99.90;;;;;;5015328;28;20506;-80
2023/12/14 07:38:11;;;;;;;7.00;6.30;;;5.00;99.90;;;;;;5015307;28;20494;-80
2023/12/14 07:40:40;;;;;;;10.63;7.57;;;5.00;99.90;;;;;;5014922;28;20475;-80
2023/12/14 07:43:08;;;;;;;11.97;9.70;;;5.00;99.90;;;;;;5014999;28;20451;-80
2023/12/14 07:45:36;;;;;;;13.70;11.30;;;4.90;99.90;;;;;;5014728;28;20456;-80
2023/12/14 07:48:05;;;;;;;17.30;12.33;;;4.90;99.90;;;;;;5016451;28;20436;-80
2023/12/14 07:50:33;;;;;;;16.73;12.27;;;5.00;99.90;;;;;;5015822;28;20475;-80
2023/12/14 07:53:04;;;;;;;16.73;13.50;;;5.00;99.90;;;;;;5014620;28;20526;-80
2023/12/14 07:55:32;;;;;;;17.73;14.10;;;5.00;99.90;;;;;;5014338;28;20543;-80
2023/12/14 07:58:00;;;;;;;17.60;14.13;;;5.00;99.90;;;;;;5014262;28;20459;-80
2023/12/14 08:00:28;;;;;;;19.67;15.80;;;5.00;99.90;;;;;;5014509;28;20510;-80
2023/12/14 08:02:57;;;;;;;16.57;14.37;;;5.00;99.90;;;;;;5014875;28;20459;-80
2023/12/14 08:05:25;;;;;;;21.43;15.97;;;5.00;99.90;;;;;;5014410;28;20470;-80
2023/12/14 08:07:54;;;;;;;19.83;16.20;;;5.00;99.90;;;;;;5014666;28;20462;-80
2023/12/14 08:10:23;;;;;;;18.23;15.20;;;5.00;99.90;;;;;;5015497;28;21027;-80
2023/12/14 08:12:52;;;;;;;20.77;16.63;;;5.00;99.90;;;;;;5018710;28;20468;-80
2023/12/14 08:15:22;;;;;;;19.60;15.70;;;5.00;99.90;;;;;;5017886;28;20471;-80
2023/12/14 08:17:50;;;;;;;20.60;15.87;;;5.00;99.90;;;;;;5018215;28;20452;-80
2023/12/14 08:20:18;;;;;;;20.93;15.50;;;4.90;99.90;;;;;;5018375;28;20451;-80
2023/12/14 08:22:46;;;;;;;16.90;15.07;;;5.00;99.90;;;;;;5017200;28;20454;-80
2023/12/14 08:25:16;;;;;;;20.10;16.43;;;5.00;99.90;;;;;;5017549;28;20554;-80
2023/12/14 08:27:45;;;;;;;18.67;15.40;;;5.00;99.90;;;;;;5017428;28;20451;-80
2023/12/14 08:30:14;;;;;;;20.50;15.60;;;5.00;99.90;;;;;;5017850;28;20792;-80
2023/12/14 08:32:43;;;;;;;21.30;15.97;;;5.00;99.90;;;;;;5017542;28;20464;-80
2023/12/14 08:35:11;;;;;;;20.40;15.10;;;5.00;99.90;;;;;;5016741;28;20475;-80
2023/12/14 08:37:39;;;;;;;18.77;15.10;;;5.00;99.90;;;;;;5017146;28;20499;-80
2023/12/14 08:40:09;;;;;;;19.10;15.83;;;5.00;99.90;;;;;;5016945;28;20461;-80
2023/12/14 08:42:37;;;;;;;19.83;16.57;;;5.00;99.90;;;;;;5018486;28;20442;-80
2023/12/14 08:45:11;;;;;;;17.87;15.13;;;5.00;99.90;;;;;;5017016;28;20468;-80
2023/12/14 08:47:39;;;;;;;19.73;16.70;;;5.00;99.90;;;;;;5016785;28;20480;-80
2023/12/14 08:50:08;;;;;;;22.13;15.97;;;5.00;99.90;;;;;;5016879;28;20504;-80
2023/12/14 08:52:37;;;;;;;22.67;15.33;;;5.00;99.90;;;;;;5016647;28;20479;-80
2023/12/14 08:55:07;;;;;;;19.50;16.90;;;5.00;99.90;;;;;;5016281;28;20476;-80
2023/12/14 08:57:35;;;;;;;22.07;15.87;;;5.00;99.90;;;;;;5016649;28;20448;-80
2023/12/14 09:00:06;;;;;;;21.53;16.33;;;5.00;99.90;;;;;;5016590;28;20447;-80
2023/12/14 09:02:36;;;;;;;18.53;15.33;;;5.10;99.90;;;;;;5018310;28;20428;-80
2023/12/14 09:05:06;;;;;;;17.73;15.37;;;5.10;99.90;;;;;;5018092;28;20455;-80
2023/12/14 09:07:35;;;;;;;18.87;16.00;;;5.10;99.90;;;;;;5016904;28;20451;-80
2023/12/14 09:10:03;;;;;;;19.40;14.83;;;5.10;99.90;;;;;;5018683;28;20832;-80
2023/12/14 09:12:31;;;;;;;21.60;15.33;;;5.10;99.90;;;;;;5016151;28;20504;-80
2023/12/14 09:15:00;;;;;;;18.70;15.87;;;5.10;99.90;;;;;;5016317;28;20460;-80
2023/12/14 09:17:32;;;;;;;17.33;15.00;;;5.10;99.90;;;;;;5017101;28;20444;-80
2023/12/14 09:20:08;;;;;;;18.50;14.67;;;5.10;99.90;;;;;;5016360;28;20503;-80
2023/12/14 09:22:36;;;;;;;15.80;14.10;;;5.20;99.90;;;;;;5016434;28;20441;-80
2023/12/14 09:25:05;;;;;;;19.80;14.83;;;5.20;99.90;;;;;;5016367;28;20496;-80
2023/12/14 09:27:33;;;;;;;22.47;15.20;;;5.20;99.90;;;;;;5016645;28;20594;-80
2023/12/14 09:30:02;;;;;;;19.30;14.73;;;5.20;99.90;;;;;;5016159;28;20456;-80
2023/12/14 09:32:30;;;;;;;16.37;14.33;;;5.20;99.90;;;;;;5016205;28;20471;-80
2023/12/14 09:34:58;;;;;;;20.17;14.50;;;5.20;99.90;;;;;;5016067;28;20828;-80
2023/12/14 09:37:28;;;;;;;19.50;13.87;;;5.20;99.90;;;;;;5016256;28;20456;-80
2023/12/14 09:39:57;;;;;;;18.03;14.20;;;5.20;99.90;;;;;;5017393;28;20443;-80
2023/12/14 09:42:26;;;;;;;19.03;14.70;;;5.20;99.90;;;;;;5016184;28;20937;-80
2023/12/14 09:44:56;;;;;;;18.83;14.23;;;5.30;99.90;;;;;;5015897;28;20543;-80
2023/12/14 09:47:24;;;;;;;16.40;14.60;;;5.30;99.90;;;;;;5016986;28;20446;-80
2023/12/14 09:49:54;;;;;;;19.27;14.10;;;5.20;99.90;;;;;;5015166;28;20458;-80
2023/12/14 09:52:22;;;;;;;18.47;14.67;;;5.20;99.90;;;;;;5015541;28;20475;-80
2023/12/14 09:54:51;;;;;;;16.93;14.97;;;5.30;99.90;;;;;;5015716;28;20468;-80
2023/12/14 09:57:24;;;;;;;20.17;15.50;;;5.30;99.90;;;;;;5015767;28;20450;-80
2023/12/14 09:59:53;;;;;;;21.07;14.50;;;5.30;99.90;;;;;;5015590;28;20460;-80
2023/12/14 10:02:25;;;;;;;17.30;13.43;;;5.30;99.90;;;;;;5015436;28;20482;-80
2023/12/14 10:04:53;;;;;;;18.07;14.90;;;5.30;99.90;;;;;;5015194;28;20472;-80
2023/12/14 10:07:23;;;;;;;16.20;13.30;;;5.30;99.90;;;;;;5016002;28;20510;-81
2023/12/14 10:09:53;;;;;;;18.17;13.10;;;5.30;99.90;;;;;;5019732;28;20439;-81
2023/12/14 10:12:23;;;;;;;20.03;13.83;;;5.30;99.90;;;;;;5018240;28;20443;-81
2023/12/14 10:15:02;;;;;;;20.27;14.90;;;5.30;99.90;;;;;;5018329;28;20472;-81
2023/12/14 10:17:32;;;;;;;21.00;13.93;;;5.30;99.90;;;;;;5017883;28;20445;-81
2023/12/14 10:20:04;;;;;;;16.73;13.70;;;5.30;99.90;;;;;;5017914;28;20448;-81
2023/12/14 10:22:32;;;;;;;16.90;13.23;;;5.30;99.90;;;;;;5019631;28;20476;-80
2023/12/14 10:25:03;;;;;;;19.33;14.40;;;5.30;99.90;;;;;;5017876;28;20465;-80
2023/12/14 10:27:31;;;;;;;17.57;14.10;;;5.40;99.90;;;;;;5017513;28;20448;-80
2023/12/14 10:30:00;;;;;;;22.03;14.37;;;5.40;99.90;;;;;;5017277;28;20452;-80
2023/12/14 10:32:29;;;;;;;15.70;13.53;;;5.40;99.90;;;;;;5016799;28;20514;-80
2023/12/14 10:34:58;;;;;;;13.73;12.13;;;5.40;99.90;;;;;;5016460;28;20997;-80
2023/12/14 10:37:27;;;;;;;21.50;14.33;;;5.40;99.90;;;;;;5017329;28;20463;-81
2023/12/14 10:39:56;;;;;;;17.03;14.10;;;5.40;99.90;;;;;;5017389;28;20444;-81
2023/12/14 10:42:28;;;;;;;17.00;14.30;;;5.40;99.90;;;;;;5018341;28;20859;-80
2023/12/14 10:44:58;;;;;;;14.23;12.40;;;5.40;99.90;;;;;;5016923;28;20830;-80
2023/12/14 10:47:46;;;;;;;16.80;12.70;;;5.40;99.90;;;;;;5017721;28;20538;-80
2023/12/14 10:50:16;;;;;;;16.90;13.40;;;5.40;99.90;;;;;;5017394;28;20458;-80
2023/12/14 10:52:46;;;;;;;18.93;13.13;;;5.40;99.90;;;;;;5016914;28;20452;-81
2023/12/14 10:55:22;;;;;;;16.60;13.07;;;5.40;99.90;;;;;;5016639;28;20481;-80
2023/12/14 10:57:52;;;;;;;16.30;12.90;;;5.40;99.90;;;;;;5017088;28;20449;-80
2023/12/14 11:00:21;;;;;;;15.80;12.73;;;5.40;99.90;;;;;;5016865;28;20436;-81
2023/12/14 11:02:49;;;;;;;20.83;13.93;;;5.40;99.90;;;;;;5016231;28;20458;-80
2023/12/14 11:05:22;;;;;;;16.90;13.50;;;5.40;99.90;;;;;;5017197;28;20455;-80
2023/12/14 11:07:54;;;;;;;16.27;12.97;;;5.40;99.90;;;;;;5018173;28;20432;-80
2023/12/14 11:10:26;;;;;;;18.70;13.47;;;5.50;99.90;;;;;;5018002;28;20424;-80
2023/12/14 11:13:02;;;;;;;15.47;13.57;;;5.50;99.90;;;;;;5015917;28;20436;-80
2023/12/14 11:15:34;;;;;;;17.77;13.80;;;5.50;99.90;;;;;;5015823;28;20844;-80
2023/12/14 11:18:25;;;;;;;16.90;12.07;;;5.50;99.90;;;;;;5016071;28;20479;-81
2023/12/14 11:21:00;;;;;;;16.97;12.53;;;5.50;99.90;;;;;;5016231;28;20937;-80
2023/12/14 11:23:31;;;;;;;16.70;13.80;;;5.50;99.90;;;;;;5015887;28;20568;-81
2023/12/14 11:26:03;;;;;;;19.77;13.50;;;5.50;99.90;;;;;;5016733;28;20938;-80
2023/12/14 11:28:35;;;;;;;15.70;12.43;;;5.50;99.90;;;;;;5017433;28;20452;-80
2023/12/14 11:31:06;;;;;;;17.40;12.40;;;5.60;99.90;;;;;;5017394;28;20445;-80
2023/12/14 11:33:35;;;;;;;14.13;12.73;;;5.50;99.90;;;;;;5017902;28;20486;-80
2023/12/14 11:36:11;;;;;;;16.17;13.40;;;5.60;99.90;;;;;;5016581;28;20443;-80
2023/12/14 11:38:40;;;;;;;11.53;10.30;;;5.60;99.90;;;;;;5018546;28;20820;-80
2023/12/14 11:41:10;;;;;;;15.70;12.40;;;5.60;99.90;;;;;;5016700;28;20460;-80
2023/12/14 11:43:44;;;;;;;14.40;12.80;;;5.70;99.90;;;;;;5017837;28;20818;-80
2023/12/14 11:46:15;;;;;;;15.57;12.37;;;5.70;99.90;;;;;;5020141;28;20424;-80
2023/12/14 11:48:45;;;;;;;16.07;12.63;;;5.70;99.90;;;;;;5019706;28;20477;-80
2023/12/14 11:51:13;;;;;;;13.70;12.30;;;5.70;99.90;;;;;;5019964;28;20796;-80
2023/12/14 11:53:42;;;;;;;18.77;14.03;;;5.70;99.90;;;;;;5018967;28;20484;-80
2023/12/14 11:56:10;;;;;;;15.83;13.00;;;5.70;99.90;;;;;;5018949;28;20867;-80
2023/12/14 11:58:45;;;;;;;15.10;13.17;;;5.80;99.90;;;;;;5019121;28;20552;-80
2023/12/14 12:01:18;;;;;;;15.17;11.90;;;5.70;99.90;;;;;;5019382;28;21039;-79
2023/12/14 12:03:47;;;;;;;13.17;11.47;;;5.70;99.90;;;;;;5018887;28;20483;-80
2023/12/14 12:06:22;;;;;;;14.83;13.17;;;5.70;99.90;;;;;;5019107;28;20503;-80
2023/12/14 12:08:51;;;;;;;13.87;12.37;;;5.70;99.90;;;;;;5020333;28;20449;-80
2023/12/14 12:11:21;;;;;;;15.10;13.30;;;5.70;99.90;;;;;;5018940;28;20542;-80
2023/12/14 12:13:53;;;;;;;13.90;12.43;;;5.70;99.90;;;;;;5020817;28;20572;-80
2023/12/14 12:16:22;;;;;;;15.50;12.47;;;5.70;99.90;;;;;;5018249;28;20483;-80
2023/12/14 12:18:51;;;;;;;16.90;11.63;;;5.80;99.90;;;;;;5018027;28;20957;-80
2023/12/14 12:21:20;;;;;;;15.33;13.43;;;5.80;99.90;;;;;;5017909;28;20450;-80
2023/12/14 12:23:48;;;;;;;15.70;12.20;;;5.80;99.90;;;;;;5017512;28;20468;-79
2023/12/14 12:26:17;;;;;;;13.70;12.30;;;5.80;99.90;;;;;;5016813;28;20790;-80
2023/12/14 12:28:47;;;;;;;13.63;12.23;;;5.80;99.90;;;;;;5017296;28;20828;-79
2023/12/14 12:31:17;;;;;;;14.63;12.43;;;5.80;99.90;;;;;;5017228;28;20527;-79
2023/12/14 12:33:46;;;;;;;15.73;14.03;;;5.90;99.90;;;;;;5017139;28;20564;-79
2023/12/14 12:36:15;;;;;;;15.20;12.80;;;5.90;99.90;;;;;;5016773;28;20440;-79
2023/12/14 12:38:43;;;;;;;15.13;13.53;;;5.90;99.90;;;;;;5016656;28;20440;-79
2023/12/14 12:41:11;;;;;;;15.27;12.93;;;5.90;99.90;;;;;;5016745;28;20796;-79
2023/12/14 12:43:40;;;;;;;12.77;11.57;;;5.90;99.90;;;;;;5016630;28;20485;-80
2023/12/14 12:46:08;;;;;;;13.73;12.00;;;5.90;99.90;;;;;;5016914;28;20555;-80
2023/12/14 12:48:38;;;;;;;19.43;12.20;;;6.00;99.90;;;;;;5016753;28;20448;-79
2023/12/14 12:51:07;;;;;;;15.73;13.43;;;6.00;99.90;;;;;;5016679;28;20503;-79
2023/12/14 12:53:35;;;;;;;15.47;13.10;;;6.00;99.90;;;;;;5016735;28;20997;-79
2023/12/14 12:56:04;;;;;;;13.90;12.43;;;6.00;99.90;;;;;;5017586;28;20471;-79